Time;durP1;ratioP1;P1;durP2;ratioP2;P2;SDS_P1;SDS_P2;PMS_P1;PMS_P2;Temp;Humidity;BMP_temperature;BMP_pressure;BME280_temperature;BME280_humidity;BME280_pressure;Samples;Min_cycle;Max_cycle;Signal;HPM_P1;HPM_P2
2023/07/29 00:02:04;;;;;;;16.63;12.98;;;;;;;;;;5057901;28;20577;-76
2023/07/29 00:04:30;;;;;;;13.45;12.05;;;;;;;;;;5056332;28;20526;-76
2023/07/29 00:06:56;;;;;;;14.00;12.48;;;;;;;;;;5080184;28;20048;-76
2023/07/29 00:09:23;;;;;;;14.25;12.77;;;;;;;;;;5076747;28;20062;-76
2023/07/29 00:11:49;;;;;;;13.88;12.38;;;;;;;;;;5060917;28;21684;-76
2023/07/29 00:14:15;;;;;;;17.70;14.20;;;;;;;;;;5062631;28;21696;-76
2023/07/29 00:16:42;;;;;;;16.77;14.35;;;;;;;;;;5079273;28;20088;-76
2023/07/29 00:19:08;;;;;;;16.95;15.15;;;;;;;;;;5064242;28;20131;-76
2023/07/29 00:21:34;;;;;;;16.92;15.10;;;;;;;;;;5044679;28;20134;-76
2023/07/29 00:24:01;;;;;;;20.42;14.15;;;;;;;;;;5060946;28;20121;-76
2023/07/29 00:26:28;;;;;;;18.40;14.45;;;;;;;;;;5060934;28;20065;-76
2023/07/29 00:28:55;;;;;;;18.27;13.55;;;;;;;;;;5056794;28;20614;-76
2023/07/29 00:31:21;;;;;;;16.85;14.27;;;;;;;;;;5058555;28;20519;-76
2023/07/29 00:33:47;;;;;;;16.63;13.80;;;;;;;;;;5058840;28;20557;-76
2023/07/29 00:36:14;;;;;;;17.42;13.98;;;;;;;;;;5074898;27;20105;-76
2023/07/29 00:38:40;;;;;;;18.02;14.55;;;;;;;;;;5042073;28;20051;-76
2023/07/29 00:41:06;;;;;;;22.88;14.95;;;;;;;;;;5061738;28;20047;-76
2023/07/29 00:43:32;;;;;;;18.45;14.60;;;;;;;;;;5080158;27;20562;-76
2023/07/29 00:45:58;;;;;;;18.75;15.43;;;;;;;;;;5076296;28;20842;-76
2023/07/29 00:48:25;;;;;;;18.90;14.80;;;;;;;;;;5061139;28;20057;-76
2023/07/29 00:50:51;;;;;;;19.50;14.40;;;;;;;;;;5076223;28;20081;-76
2023/07/29 00:53:17;;;;;;;15.68;13.77;;;;;;;;;;5079347;27;20153;-76
2023/07/29 00:55:43;;;;;;;17.20;14.93;;;;;;;;;;5061232;28;20047;-76
2023/07/29 00:58:10;;;;;;;15.98;13.55;;;;;;;;;;5058321;28;20052;-76
2023/07/29 01:00:37;;;;;;;16.05;13.43;;;;;;;;;;5042066;28;20487;-76
2023/07/29 01:03:03;;;;;;;20.27;14.30;;;;;;;;;;5060507;28;20059;-76
2023/07/29 01:05:32;;;;;;;23.35;13.65;;;;;;;;;;5063018;28;20055;-76
2023/07/29 01:08:05;;;;;;;19.30;13.50;;;;;;;;;;5076396;28;20043;-76
2023/07/29 01:10:38;;;;;;;16.73;13.63;;;;;;;;;;5062573;28;20056;-76
2023/07/29 01:13:11;;;;;;;15.40;13.70;;;;;;;;;;5060132;28;20487;-76
2023/07/29 01:15:43;;;;;;;15.02;12.70;;;;;;;;;;5076897;28;20043;-76
2023/07/29 01:18:11;;;;;;;18.50;12.88;;;;;;;;;;5060286;28;20047;-76
2023/07/29 01:20:39;;;;;;;17.77;12.43;;;;;;;;;;5061061;28;20051;-76
2023/07/29 01:23:05;;;;;;;16.20;12.15;;;;;;;;;;5062150;28;20174;-76
2023/07/29 01:25:31;;;;;;;15.18;11.90;;;;;;;;;;5059385;28;20517;-76
2023/07/29 01:27:58;;;;;;;22.85;12.57;;;;;;;;;;5059441;28;20602;-76
2023/07/29 01:30:27;;;;;;;12.93;11.45;;;;;;;;;;5045644;28;20040;-76
2023/07/29 01:33:00;;;;;;;14.98;12.15;;;;;;;;;;5061617;28;20070;-76
2023/07/29 01:35:29;;;;;;;17.45;11.20;;;;;;;;;;5059340;28;20052;-77
2023/07/29 01:37:57;;;;;;;12.95;11.30;;;;;;;;;;5057935;28;20056;-76
2023/07/29 01:40:26;;;;;;;12.30;9.98;;;;;;;;;;5077623;28;20047;-76
2023/07/29 01:42:52;;;;;;;12.30;11.00;;;;;;;;;;5063417;28;20051;-76
2023/07/29 01:45:18;;;;;;;16.05;10.00;;;;;;;;;;5061691;28;20059;-76
2023/07/29 01:47:44;;;;;;;16.08;10.45;;;;;;;;;;5077488;28;20150;-76
2023/07/29 01:50:11;;;;;;;16.45;10.40;;;;;;;;;;5075920;28;21601;-76
2023/07/29 01:52:37;;;;;;;16.33;11.15;;;;;;;;;;5060324;28;20094;-76
2023/07/29 01:55:03;;;;;;;15.02;11.05;;;;;;;;;;5060656;28;20499;-76
2023/07/29 01:57:29;;;;;;;20.02;11.27;;;;;;;;;;5061986;28;20044;-76
2023/07/29 01:59:55;;;;;;;12.40;10.30;;;;;;;;;;5060557;28;20052;-76
2023/07/29 02:02:21;;;;;;;14.93;11.05;;;;;;;;;;5059186;28;20603;-76
2023/07/29 02:04:51;;;;;;;14.48;10.75;;;;;;;;;;5061463;28;20056;-76
2023/07/29 02:07:18;;;;;;;16.23;10.77;;;;;;;;;;5077089;28;20058;-76
2023/07/29 02:09:44;;;;;;;16.60;10.52;;;;;;;;;;5060286;28;20110;-76
2023/07/29 02:12:10;;;;;;;16.88;11.00;;;;;;;;;;5057973;28;20043;-76
2023/07/29 02:14:36;;;;;;;12.05;10.75;;;;;;;;;;5057575;28;20058;-76
2023/07/29 02:17:02;;;;;;;14.63;11.48;;;;;;;;;;5056657;28;20035;-76
2023/07/29 02:19:28;;;;;;;16.05;10.90;;;;;;;;;;5044053;28;20684;-76
2023/07/29 02:21:54;;;;;;;14.10;10.85;;;;;;;;;;5076376;28;20055;-76
2023/07/29 02:24:20;;;;;;;16.38;11.32;;;;;;;;;;5060076;28;20154;-76
2023/07/29 02:26:46;;;;;;;15.15;11.45;;;;;;;;;;5060637;28;20538;-76
2023/07/29 02:29:12;;;;;;;17.02;12.13;;;;;;;;;;5078650;28;20295;-76
2023/07/29 02:31:38;;;;;;;18.55;11.93;;;;;;;;;;5060945;28;20047;-76
2023/07/29 02:34:05;;;;;;;24.17;11.88;;;;;;;;;;5059954;28;20079;-76
2023/07/29 02:36:31;;;;;;;15.43;11.75;;;;;;;;;;5078232;28;20090;-76
2023/07/29 02:38:57;;;;;;;16.88;11.82;;;;;;;;;;5060352;28;20447;-76
2023/07/29 02:41:23;;;;;;;21.95;12.50;;;;;;;;;;5059370;28;20063;-76
2023/07/29 02:43:49;;;;;;;18.85;12.65;;;;;;;;;;5059158;28;20062;-76
2023/07/29 02:46:15;;;;;;;18.73;11.93;;;;;;;;;;5060367;28;20059;-76
2023/07/29 02:48:42;;;;;;;13.60;11.85;;;;;;;;;;5058960;28;20389;-76
2023/07/29 02:51:08;;;;;;;16.13;11.77;;;;;;;;;;5071575;27;20181;-76
2023/07/29 02:53:36;;;;;;;21.38;13.00;;;;;;;;;;5058995;28;20051;-76
2023/07/29 02:56:02;;;;;;;19.60;12.75;;;;;;;;;;5077957;28;20101;-76
2023/07/29 02:58:29;;;;;;;17.10;11.93;;;;;;;;;;5061061;28;20047;-76
2023/07/29 03:01:01;;;;;;;14.75;12.35;;;;;;;;;;5058682;28;20537;-76
2023/07/29 03:03:28;;;;;;;18.33;13.07;;;;;;;;;;5059236;28;23003;-76
2023/07/29 03:06:01;;;;;;;24.73;13.20;;;;;;;;;;5074884;28;20048;-76
2023/07/29 03:08:27;;;;;;;20.27;12.85;;;;;;;;;;5071037;27;20051;-76
2023/07/29 03:10:54;;;;;;;17.40;12.50;;;;;;;;;;5058645;28;22688;-76
2023/07/29 03:13:20;;;;;;;18.05;11.85;;;;;;;;;;5044305;28;20159;-76
2023/07/29 03:15:46;;;;;;;18.92;12.77;;;;;;;;;;5063046;28;20593;-76
2023/07/29 03:18:12;;;;;;;16.48;11.63;;;;;;;;;;5061024;28;20123;-75
2023/07/29 03:20:38;;;;;;;17.33;12.02;;;;;;;;;;5078052;28;20193;-76
2023/07/29 03:23:04;;;;;;;19.40;12.73;;;;;;;;;;5060536;28;20098;-76
2023/07/29 03:25:30;;;;;;;19.83;11.75;;;;;;;;;;5037308;28;20047;-76
2023/07/29 03:27:56;;;;;;;20.38;13.63;;;;;;;;;;5057220;28;20060;-76
2023/07/29 03:30:23;;;;;;;23.63;12.95;;;;;;;;;;5060663;28;20052;-76
2023/07/29 03:32:49;;;;;;;15.32;12.27;;;;;;;;;;5045947;28;20044;-76
2023/07/29 03:35:15;;;;;;;23.75;13.40;;;;;;;;;;5057935;28;20130;-76
2023/07/29 03:37:42;;;;;;;21.85;12.80;;;;;;;;;;5059115;28;20067;-76
2023/07/29 03:40:11;;;;;;;17.10;12.00;;;;;;;;;;5042863;28;20639;-76
2023/07/29 03:42:38;;;;;;;21.95;12.20;;;;;;;;;;5062790;28;20064;-76
2023/07/29 03:45:04;;;;;;;17.13;11.52;;;;;;;;;;5063796;28;20530;-76
2023/07/29 03:47:30;;;;;;;15.40;11.15;;;;;;;;;;5064307;28;20047;-76
2023/07/29 03:49:56;;;;;;;18.00;11.75;;;;;;;;;;5067090;28;20098;-76
2023/07/29 03:52:22;;;;;;;14.65;11.18;;;;;;;;;;5080557;27;20048;-75
2023/07/29 03:54:48;;;;;;;15.82;11.70;;;;;;;;;;5084642;28;20063;-76
2023/07/29 03:57:14;;;;;;;17.90;11.73;;;;;;;;;;5066603;27;20051;-76
2023/07/29 03:59:40;;;;;;;19.23;11.55;;;;;;;;;;5065691;28;21125;-76
2023/07/29 04:02:06;;;;;;;18.95;12.10;;;;;;;;;;5071727;28;20081;-76
2023/07/29 04:04:33;;;;;;;21.02;10.77;;;;;;;;;;5069227;28;20048;-76
2023/07/29 04:06:59;;;;;;;17.63;11.32;;;;;;;;;;5051936;28;20078;-76
2023/07/29 04:09:25;;;;;;;16.90;11.43;;;;;;;;;;5066722;28;20059;-76
2023/07/29 04:11:51;;;;;;;15.15;11.65;;;;;;;;;;5049637;28;20541;-76
2023/07/29 04:14:17;;;;;;;14.60;11.63;;;;;;;;;;5083680;27;20049;-76
2023/07/29 04:16:43;;;;;;;17.73;12.07;;;;;;;;;;5063386;28;20052;-76
2023/07/29 04:19:10;;;;;;;15.80;11.43;;;;;;;;;;5065147;28;20091;-76
2023/07/29 04:21:36;;;;;;;19.60;11.38;;;;;;;;;;5081176;28;20138;-76
2023/07/29 04:24:02;;;;;;;16.00;11.45;;;;;;;;;;5065856;28;20047;-76
2023/07/29 04:26:28;;;;;;;15.48;10.70;;;;;;;;;;5067014;28;20704;-76
2023/07/29 04:28:54;;;;;;;14.73;11.25;;;;;;;;;;5050365;28;20115;-76
2023/07/29 04:31:20;;;;;;;17.48;10.50;;;;;;;;;;5082808;27;20150;-76
2023/07/29 04:33:46;;;;;;;16.95;10.85;;;;;;;;;;5063142;28;20051;-76
2023/07/29 04:36:12;;;;;;;14.93;10.15;;;;;;;;;;5066241;28;20603;-76
2023/07/29 04:38:38;;;;;;;16.25;10.13;;;;;;;;;;5069420;28;20135;-76
2023/07/29 04:41:06;;;;;;;15.43;10.15;;;;;;;;;;5066050;27;20066;-76
2023/07/29 04:43:33;;;;;;;14.05;9.57;;;;;;;;;;5063927;28;20079;-76
2023/07/29 04:45:59;;;;;;;22.15;10.52;;;;;;;;;;5054976;28;21563;-76
2023/07/29 04:48:25;;;;;;;18.98;10.73;;;;;;;;;;5059381;28;20530;-76
2023/07/29 04:50:51;;;;;;;33.03;10.15;;;;;;;;;;5045377;28;20103;-76
2023/07/29 04:53:17;;;;;;;14.07;9.30;;;;;;;;;;5065226;28;20454;-75
2023/07/29 04:55:43;;;;;;;14.45;9.63;;;;;;;;;;5060691;28;20039;-76
2023/07/29 04:58:10;;;;;;;14.82;9.68;;;;;;;;;;5063262;28;20660;-75
2023/07/29 05:00:36;;;;;;;14.00;8.93;;;;;;;;;;5080391;27;20130;-75
2023/07/29 05:03:02;;;;;;;13.05;9.05;;;;;;;;;;5064225;28;20051;-75
2023/07/29 05:05:28;;;;;;;17.25;9.38;;;;;;;;;;5062903;28;20074;-76
2023/07/29 05:07:54;;;;;;;13.52;8.50;;;;;;;;;;5060499;28;20055;-76
2023/07/29 05:10:21;;;;;;;17.27;8.65;;;;;;;;;;5077419;27;20142;-76
2023/07/29 05:12:47;;;;;;;10.07;7.25;;;;;;;;;;5039485;28;20048;-77
2023/07/29 05:15:13;;;;;;;16.35;7.95;;;;;;;;;;5060021;28;20105;-77
2023/07/29 05:17:39;;;;;;;11.60;7.40;;;;;;;;;;5059948;28;20035;-77
2023/07/29 05:20:05;;;;;;;13.20;7.82;;;;;;;;;;5062201;28;20082;-77
2023/07/29 05:22:31;;;;;;;13.07;7.45;;;;;;;;;;5061458;28;20126;-77
2023/07/29 05:24:58;;;;;;;12.80;7.13;;;;;;;;;;5061009;28;20143;-77
2023/07/29 05:27:24;;;;;;;14.15;8.23;;;;;;;;;;5062850;28;21957;-76
2023/07/29 05:29:50;;;;;;;11.23;7.07;;;;;;;;;;5062008;28;20093;-77
2023/07/29 05:32:16;;;;;;;10.60;6.93;;;;;;;;;;5063306;28;20138;-77
2023/07/29 05:34:42;;;;;;;10.75;7.00;;;;;;;;;;5073624;28;20144;-76
2023/07/29 05:37:08;;;;;;;10.45;6.15;;;;;;;;;;5063858;28;20047;-76
2023/07/29 05:39:34;;;;;;;11.23;5.95;;;;;;;;;;5078911;28;20046;-76
2023/07/29 05:42:02;;;;;;;11.32;6.90;;;;;;;;;;5062709;28;20070;-76
2023/07/29 05:44:30;;;;;;;13.93;6.40;;;;;;;;;;5050870;28;20358;-76
2023/07/29 05:46:57;;;;;;;10.70;6.13;;;;;;;;;;5063489;28;20645;-76
2023/07/29 05:49:23;;;;;;;8.35;5.93;;;;;;;;;;5082787;28;20059;-76
2023/07/29 05:51:50;;;;;;;8.73;6.10;;;;;;;;;;5088099;28;20491;-76
2023/07/29 05:54:16;;;;;;;10.68;6.03;;;;;;;;;;5051458;28;20043;-76
2023/07/29 05:56:42;;;;;;;9.30;5.65;;;;;;;;;;5070440;28;20048;-77
2023/07/29 05:59:08;;;;;;;11.52;6.15;;;;;;;;;;5070542;28;20055;-77
2023/07/29 06:01:34;;;;;;;13.38;6.28;;;;;;;;;;5052956;28;20054;-76
2023/07/29 06:04:01;;;;;;;14.55;5.75;;;;;;;;;;5067795;28;20122;-76
2023/07/29 06:06:27;;;;;;;10.13;5.70;;;;;;;;;;5083941;27;22085;-77
2023/07/29 06:08:53;;;;;;;10.57;5.45;;;;;;;;;;5083706;27;20057;-77
2023/07/29 06:11:19;;;;;;;9.23;5.53;;;;;;;;;;5063034;28;20054;-77
2023/07/29 06:13:46;;;;;;;7.50;4.95;;;;;;;;;;5080999;28;20126;-76
2023/07/29 06:16:12;;;;;;;7.00;5.10;;;;;;;;;;5082505;28;20048;-76
2023/07/29 06:18:38;;;;;;;8.85;5.30;;;;;;;;;;5061168;28;20078;-75
2023/07/29 06:21:07;;;;;;;11.43;5.25;;;;;;;;;;5053675;28;20091;-76
2023/07/29 06:23:33;;;;;;;12.40;4.70;;;;;;;;;;5079429;28;20051;-76
2023/07/29 06:26:00;;;;;;;9.10;5.15;;;;;;;;;;5061980;28;20059;-76
2023/07/29 06:28:26;;;;;;;9.98;4.32;;;;;;;;;;5064222;28;20081;-76
2023/07/29 06:30:53;;;;;;;11.70;4.95;;;;;;;;;;5059499;28;20149;-76
2023/07/29 06:33:19;;;;;;;8.52;4.55;;;;;;;;;;5067774;28;20139;-76
2023/07/29 06:35:45;;;;;;;10.15;4.20;;;;;;;;;;5061363;28;20052;-76
2023/07/29 06:38:11;;;;;;;8.20;4.22;;;;;;;;;;5062777;28;20130;-76
2023/07/29 06:40:37;;;;;;;8.27;3.88;;;;;;;;;;5060883;28;20043;-76
2023/07/29 06:43:03;;;;;;;6.47;4.80;;;;;;;;;;5059192;28;20052;-76
2023/07/29 06:45:29;;;;;;;9.15;4.82;;;;;;;;;;5061620;28;20058;-76
2023/07/29 06:47:55;;;;;;;9.63;4.18;;;;;;;;;;5063077;28;20048;-76
2023/07/29 06:50:21;;;;;;;6.50;3.92;;;;;;;;;;5081469;28;20112;-76
2023/07/29 06:52:48;;;;;;;8.75;4.35;;;;;;;;;;5060874;28;20044;-76
2023/07/29 06:55:14;;;;;;;8.82;4.25;;;;;;;;;;5065994;28;20051;-76
2023/07/29 06:57:40;;;;;;;5.38;3.65;;;;;;;;;;5065373;28;20051;-76
2023/07/29 07:00:09;;;;;;;8.18;3.50;;;;;;;;;;5059000;28;20051;-76
2023/07/29 07:02:35;;;;;;;8.23;3.45;;;;;;;;;;5062456;28;20066;-76
2023/07/29 07:05:01;;;;;;;6.20;3.58;;;;;;;;;;5082186;28;21100;-76
2023/07/29 07:07:27;;;;;;;9.52;4.00;;;;;;;;;;5064801;28;20048;-76
2023/07/29 07:09:53;;;;;;;14.15;4.47;;;;;;;;;;5084903;28;20051;-76
2023/07/29 07:12:19;;;;;;;7.25;3.40;;;;;;;;;;5061290;28;20062;-76
2023/07/29 07:14:45;;;;;;;7.03;3.90;;;;;;;;;;5076903;27;20047;-76
2023/07/29 07:17:11;;;;;;;8.18;3.60;;;;;;;;;;5081424;28;20048;-75
2023/07/29 07:19:37;;;;;;;8.38;3.90;;;;;;;;;;5063530;28;20052;-76
2023/07/29 07:22:04;;;;;;;8.77;3.85;;;;;;;;;;5064756;28;20052;-76
2023/07/29 07:24:30;;;;;;;8.95;3.83;;;;;;;;;;5064961;28;22061;-76
2023/07/29 07:26:56;;;;;;;10.93;4.50;;;;;;;;;;5049545;28;20059;-76
2023/07/29 07:29:22;;;;;;;11.70;4.90;;;;;;;;;;5082898;28;20496;-76
2023/07/29 07:31:52;;;;;;;7.25;4.00;;;;;;;;;;5047690;28;22876;-76
2023/07/29 07:34:22;;;;;;;11.95;4.10;;;;;;;;;;5066163;28;20054;-76
2023/07/29 07:36:48;;;;;;;7.78;3.60;;;;;;;;;;5082507;28;20215;-76
2023/07/29 07:39:15;;;;;;;7.05;4.28;;;;;;;;;;5061279;28;20059;-77
2023/07/29 07:41:41;;;;;;;11.05;3.60;;;;;;;;;;5064677;28;20052;-77
2023/07/29 07:44:07;;;;;;;8.48;3.83;;;;;;;;;;5059975;28;20052;-76
2023/07/29 07:46:33;;;;;;;8.73;4.07;;;;;;;;;;5061073;28;20055;-76
2023/07/29 07:48:59;;;;;;;6.80;4.13;;;;;;;;;;5063617;28;21750;-76
2023/07/29 07:51:25;;;;;;;7.15;3.88;;;;;;;;;;5062877;28;20308;-76
2023/07/29 07:53:51;;;;;;;6.90;3.47;;;;;;;;;;5081381;28;20048;-76
2023/07/29 07:56:17;;;;;;;9.23;3.72;;;;;;;;;;5062535;28;20151;-77
2023/07/29 07:58:44;;;;;;;8.77;3.75;;;;;;;;;;5061730;28;20051;-77
2023/07/29 08:01:10;;;;;;;8.25;3.72;;;;;;;;;;5064915;28;20141;-77
2023/07/29 08:03:36;;;;;;;10.70;4.43;;;;;;;;;;5054678;28;20055;-77
2023/07/29 08:06:03;;;;;;;9.13;4.82;;;;;;;;;;5062898;28;20058;-77
2023/07/29 08:08:29;;;;;;;10.82;4.63;;;;;;;;;;5062809;28;20469;-78
2023/07/29 08:10:56;;;;;;;7.22;4.40;;;;;;;;;;5062746;28;20055;-78
2023/07/29 08:13:26;;;;;;;8.50;4.10;;;;;;;;;;5062242;28;20130;-78
2023/07/29 08:15:52;;;;;;;7.95;3.45;;;;;;;;;;5061840;28;20047;-77
2023/07/29 08:18:19;;;;;;;9.70;4.20;;;;;;;;;;5082972;28;20086;-78
2023/07/29 08:20:53;;;;;;;8.57;3.60;;;;;;;;;;5063139;28;20051;-78
2023/07/29 08:23:19;;;;;;;7.68;3.25;;;;;;;;;;5066739;28;20091;-77
2023/07/29 08:25:45;;;;;;;6.47;3.50;;;;;;;;;;5059491;28;20170;-77
2023/07/29 08:28:12;;;;;;;7.93;3.65;;;;;;;;;;5067034;28;21934;-77
2023/07/29 08:30:38;;;;;;;5.95;3.47;;;;;;;;;;5048727;28;20066;-77
2023/07/29 08:33:04;;;;;;;8.55;3.45;;;;;;;;;;5065361;27;20084;-77
2023/07/29 08:35:30;;;;;;;9.90;3.63;;;;;;;;;;5048264;28;20067;-77
2023/07/29 08:37:56;;;;;;;7.47;3.75;;;;;;;;;;5064561;28;20043;-77
2023/07/29 08:40:28;;;;;;;11.95;3.85;;;;;;;;;;5067589;28;20052;-77
2023/07/29 08:42:56;;;;;;;4.93;3.28;;;;;;;;;;5050332;28;20086;-76
2023/07/29 08:45:22;;;;;;;5.55;3.25;;;;;;;;;;5086855;28;20051;-77
2023/07/29 08:47:50;;;;;;;9.02;3.10;;;;;;;;;;5065893;28;20051;-76
2023/07/29 08:50:16;;;;;;;8.63;3.13;;;;;;;;;;5066730;28;20040;-76
2023/07/29 08:52:44;;;;;;;7.55;2.90;;;;;;;;;;5058637;27;20054;-77
2023/07/29 08:55:10;;;;;;;5.60;3.10;;;;;;;;;;5077865;28;20051;-76
2023/07/29 08:57:37;;;;;;;5.80;3.20;;;;;;;;;;5060338;28;20072;-77
2023/07/29 09:00:03;;;;;;;7.93;3.08;;;;;;;;;;5061454;28;20539;-77
2023/07/29 09:02:29;;;;;;;6.60;2.92;;;;;;;;;;5040240;28;20044;-77
2023/07/29 09:04:55;;;;;;;3.00;2.10;;;;;;;;;;5064782;28;20086;-77
2023/07/29 09:07:21;;;;;;;7.70;2.83;;;;;;;;;;5080234;27;20204;-76
2023/07/29 09:09:47;;;;;;;4.43;2.67;;;;;;;;;;5074248;28;20455;-77
2023/07/29 09:12:14;;;;;;;7.78;3.00;;;;;;;;;;5063810;28;20051;-76
2023/07/29 09:14:40;;;;;;;4.53;2.50;;;;;;;;;;5082994;28;20047;-76
2023/07/29 09:17:10;;;;;;;16.98;3.15;;;;;;;;;;5079074;28;20109;-77
2023/07/29 09:19:36;;;;;;;9.07;2.90;;;;;;;;;;5077597;28;20054;-77
2023/07/29 09:22:02;;;;;;;8.88;3.10;;;;;;;;;;5060079;28;20064;-76
2023/07/29 09:24:32;;;;;;;5.35;2.60;;;;;;;;;;5060585;28;20102;-77
2023/07/29 09:26:58;;;;;;;6.18;2.92;;;;;;;;;;5066816;28;20411;-77
2023/07/29 09:29:24;;;;;;;15.45;2.60;;;;;;;;;;5063858;28;20048;-77
2023/07/29 09:31:50;;;;;;;5.65;2.15;;;;;;;;;;5069679;28;20052;-77
2023/07/29 09:34:17;;;;;;;10.25;2.47;;;;;;;;;;5067474;28;20631;-77
2023/07/29 09:36:43;;;;;;;3.60;2.33;;;;;;;;;;5069890;28;20420;-77
2023/07/29 09:39:13;;;;;;;5.40;2.47;;;;;;;;;;5067533;27;20611;-77
2023/07/29 09:41:39;;;;;;;6.20;2.08;;;;;;;;;;5064891;28;20048;-77
2023/07/29 09:44:05;;;;;;;4.53;2.13;;;;;;;;;;5068771;28;20083;-77
2023/07/29 09:46:38;;;;;;;5.35;2.08;;;;;;;;;;5052688;28;20091;-77
2023/07/29 09:49:05;;;;;;;5.68;2.40;;;;;;;;;;5050726;28;20407;-77
2023/07/29 09:51:32;;;;;;;7.72;1.95;;;;;;;;;;5067649;28;20051;-78
2023/07/29 09:53:58;;;;;;;3.95;2.17;;;;;;;;;;5066696;28;21866;-77
2023/07/29 09:56:27;;;;;;;5.70;1.80;;;;;;;;;;5068539;28;20480;-77
2023/07/29 09:58:57;;;;;;;4.82;2.05;;;;;;;;;;5060529;28;20052;-77
2023/07/29 10:01:23;;;;;;;8.00;2.42;;;;;;;;;;5065691;28;20066;-75
2023/07/29 10:03:50;;;;;;;5.45;1.85;;;;;;;;;;5061149;28;20628;-75
2023/07/29 10:06:16;;;;;;;4.05;2.00;;;;;;;;;;5045922;28;20538;-75
2023/07/29 10:08:43;;;;;;;6.85;2.10;;;;;;;;;;5055705;28;20441;-75
2023/07/29 10:11:10;;;;;;;8.93;2.13;;;;;;;;;;5042353;28;20087;-75
2023/07/29 10:13:36;;;;;;;5.82;1.90;;;;;;;;;;5040877;28;20815;-75
2023/07/29 10:16:03;;;;;;;3.30;1.80;;;;;;;;;;5045451;28;20051;-75
2023/07/29 10:18:30;;;;;;;5.20;1.90;;;;;;;;;;5044787;28;20139;-75
2023/07/29 10:21:00;;;;;;;3.88;1.77;;;;;;;;;;5028184;28;20679;-76
2023/07/29 10:23:28;;;;;;;5.97;1.60;;;;;;;;;;5046093;28;20969;-75
2023/07/29 10:26:04;;;;;;;2.97;1.67;;;;;;;;;;5061827;28;20055;-75
2023/07/29 10:28:31;;;;;;;4.20;1.63;;;;;;;;;;5044642;28;20109;-75
2023/07/29 10:30:58;;;;;;;5.05;1.35;;;;;;;;;;5012798;28;20271;-75
2023/07/29 10:33:24;;;;;;;3.97;1.60;;;;;;;;;;5063333;28;20058;-75
2023/07/29 10:35:50;;;;;;;4.00;1.45;;;;;;;;;;5048282;28;20056;-75
2023/07/29 10:38:17;;;;;;;3.90;1.42;;;;;;;;;;5062683;28;20109;-75
2023/07/29 10:40:53;;;;;;;3.88;1.77;;;;;;;;;;5045705;28;20057;-74
2023/07/29 10:43:20;;;;;;;4.95;1.60;;;;;;;;;;5046309;28;20048;-75
2023/07/29 10:45:46;;;;;;;4.03;1.20;;;;;;;;;;5029874;28;20408;-75
2023/07/29 10:48:13;;;;;;;2.30;1.02;;;;;;;;;;5043999;28;20079;-75
2023/07/29 10:50:39;;;;;;;3.85;1.45;;;;;;;;;;5062270;28;20390;-76
2023/07/29 10:53:05;;;;;;;4.95;1.40;;;;;;;;;;5030629;28;20052;-76
2023/07/29 10:55:36;;;;;;;2.55;1.30;;;;;;;;;;5047225;28;20058;-76
2023/07/29 10:58:12;;;;;;;4.07;1.10;;;;;;;;;;5069315;28;20104;-76
2023/07/29 11:00:39;;;;;;;2.80;1.17;;;;;;;;;;5058971;28;20180;-76
2023/07/29 11:03:08;;;;;;;2.90;1.40;;;;;;;;;;5045578;28;20051;-75
2023/07/29 11:05:44;;;;;;;4.40;1.13;;;;;;;;;;5028432;28;20702;-75
2023/07/29 11:08:20;;;;;;;6.78;1.98;;;;;;;;;;5054747;28;20513;-76
2023/07/29 11:10:58;;;;;;;2.13;1.30;;;;;;;;;;5077394;28;20048;-75
2023/07/29 11:13:26;;;;;;;3.58;1.15;;;;;;;;;;5042861;28;20048;-75
2023/07/29 11:15:53;;;;;;;7.35;1.70;;;;;;;;;;5044106;28;20408;-76
2023/07/29 11:18:21;;;;;;;4.25;1.35;;;;;;;;;;5061132;28;20039;-75
2023/07/29 11:20:48;;;;;;;2.55;1.23;;;;;;;;;;5061959;28;20518;-75
2023/07/29 11:23:14;;;;;;;4.18;1.30;;;;;;;;;;5079562;28;20169;-75
2023/07/29 11:25:41;;;;;;;3.33;1.33;;;;;;;;;;5031535;28;20647;-75
2023/07/29 11:28:07;;;;;;;6.07;1.30;;;;;;;;;;5040679;28;21652;-75
2023/07/29 11:30:33;;;;;;;5.32;1.63;;;;;;;;;;5055591;28;20411;-75
2023/07/29 11:33:00;;;;;;;5.70;1.63;;;;;;;;;;5046238;28;20471;-76
2023/07/29 11:35:26;;;;;;;2.85;1.70;;;;;;;;;;5047862;28;20101;-75
2023/07/29 11:37:53;;;;;;;6.25;1.33;;;;;;;;;;5069765;28;21727;-76
2023/07/29 11:40:20;;;;;;;1.88;1.02;;;;;;;;;;5069147;28;20052;-75
2023/07/29 11:42:47;;;;;;;6.63;1.70;;;;;;;;;;5085658;28;20098;-75
2023/07/29 11:45:13;;;;;;;2.65;1.00;;;;;;;;;;5068155;28;20055;-74
2023/07/29 11:47:39;;;;;;;2.88;1.35;;;;;;;;;;5067878;28;20047;-75
2023/07/29 11:50:07;;;;;;;5.18;1.50;;;;;;;;;;5068512;28;20776;-75
2023/07/29 11:52:37;;;;;;;36.03;4.28;;;;;;;;;;5067357;28;20515;-80
2023/07/29 11:55:03;;;;;;;6.68;2.45;;;;;;;;;;5053324;28;20082;-79
2023/07/29 11:57:39;;;;;;;7.78;1.80;;;;;;;;;;5053991;28;20067;-77
2023/07/29 12:00:06;;;;;;;3.55;1.40;;;;;;;;;;5071495;28;22201;-76
2023/07/29 12:02:33;;;;;;;3.47;1.60;;;;;;;;;;5090568;28;20051;-76
2023/07/29 12:04:59;;;;;;;2.10;1.85;;;;;;;;;;5068904;28;20077;-77
2023/07/29 12:07:26;;;;;;;5.65;1.80;;;;;;;;;;5072041;28;20048;-77
2023/07/29 12:09:52;;;;;;;5.18;1.70;;;;;;;;;;5037638;28;20085;-77
2023/07/29 12:12:18;;;;;;;3.70;1.55;;;;;;;;;;5068385;27;20130;-78
2023/07/29 12:14:46;;;;;;;5.47;2.25;;;;;;;;;;5064112;28;20401;-78
2023/07/29 12:17:12;;;;;;;6.97;2.30;;;;;;;;;;5086098;28;20093;-78
2023/07/29 12:19:40;;;;;;;4.43;2.17;;;;;;;;;;5049301;28;20093;-77
2023/07/29 12:22:07;;;;;;;6.63;2.45;;;;;;;;;;5042203;28;20050;-78
2023/07/29 12:24:34;;;;;;;7.05;2.20;;;;;;;;;;5060911;28;20134;-78
2023/07/29 12:27:00;;;;;;;3.75;1.88;;;;;;;;;;5062742;28;20055;-78
2023/07/29 12:29:27;;;;;;;2.97;1.70;;;;;;;;;;5045006;28;20044;-78
2023/07/29 12:32:04;;;;;;;6.32;1.63;;;;;;;;;;5059724;28;20190;-80
2023/07/29 12:34:30;;;;;;;6.25;1.83;;;;;;;;;;5077839;28;20044;-80
2023/07/29 12:36:57;;;;;;;5.65;2.08;;;;;;;;;;5057562;28;20047;-79
2023/07/29 12:39:27;;;;;;;6.38;1.80;;;;;;;;;;5063928;28;20066;-80
2023/07/29 12:41:55;;;;;;;3.67;1.80;;;;;;;;;;5059562;28;20056;-79
2023/07/29 12:44:21;;;;;;;4.78;1.95;;;;;;;;;;5078908;28;20443;-79
2023/07/29 12:46:47;;;;;;;4.50;1.75;;;;;;;;;;5037376;28;20053;-79
2023/07/29 12:49:13;;;;;;;5.85;2.13;;;;;;;;;;5059399;28;20713;-80
2023/07/29 12:51:39;;;;;;;3.58;2.00;;;;;;;;;;5042887;28;20112;-80
2023/07/29 12:54:05;;;;;;;4.78;2.28;;;;;;;;;;5041190;28;20143;-80
2023/07/29 12:56:32;;;;;;;6.07;2.42;;;;;;;;;;5076238;28;20582;-80
2023/07/29 12:58:59;;;;;;;2.22;1.73;;;;;;;;;;5060151;28;20211;-84
2023/07/29 13:01:25;;;;;;;2.78;1.50;;;;;;;;;;5063567;27;20112;-85
2023/07/29 13:03:51;;;;;;;1.65;1.30;;;;;;;;;;5068891;28;20056;-84
2023/07/29 13:06:17;;;;;;;1.98;1.50;;;;;;;;;;5079711;28;20144;-84
2023/07/29 13:08:44;;;;;;;6.00;1.63;;;;;;;;;;5069163;28;20048;-84
2023/07/29 13:11:10;;;;;;;2.67;1.33;;;;;;;;;;5072741;28;20062;-85
2023/07/29 13:13:40;;;;;;;4.00;1.67;;;;;;;;;;5083297;28;20126;-86
2023/07/29 13:16:06;;;;;;;2.40;1.42;;;;;;;;;;5074919;28;20058;-86
2023/07/29 13:18:32;;;;;;;2.00;1.50;;;;;;;;;;5084399;28;20046;-85
2023/07/29 13:21:01;;;;;;;5.95;1.75;;;;;;;;;;5066517;28;20070;-85
2023/07/29 13:23:29;;;;;;;2.45;1.15;;;;;;;;;;5083187;28;20116;-86
2023/07/29 13:25:55;;;;;;;3.53;2.00;;;;;;;;;;5065744;28;20061;-85
2023/07/29 13:28:21;;;;;;;2.70;1.52;;;;;;;;;;5101696;28;20044;-85
2023/07/29 13:30:47;;;;;;;4.05;1.63;;;;;;;;;;5069962;28;20048;-87
2023/07/29 13:33:13;;;;;;;4.22;1.70;;;;;;;;;;5064429;28;21664;-86
2023/07/29 13:35:39;;;;;;;4.07;1.60;;;;;;;;;;5062093;28;20066;-85
2023/07/29 13:38:06;;;;;;;4.53;1.38;;;;;;;;;;5066016;28;20043;-85
2023/07/29 13:40:32;;;;;;;3.53;1.50;;;;;;;;;;5066424;28;20048;-86
2023/07/29 13:43:01;;;;;;;3.13;1.10;;;;;;;;;;5065299;28;20058;-86
2023/07/29 13:45:27;;;;;;;3.40;1.30;;;;;;;;;;5065882;28;20102;-85
2023/07/29 13:47:53;;;;;;;8.30;1.58;;;;;;;;;;5062939;28;20047;-85
2023/07/29 13:50:19;;;;;;;5.57;1.40;;;;;;;;;;5083899;28;20142;-86
2023/07/29 13:52:45;;;;;;;2.45;1.50;;;;;;;;;;5079183;28;20040;-85
2023/07/29 13:55:12;;;;;;;2.47;1.45;;;;;;;;;;5062753;28;21672;-84
2023/07/29 13:57:39;;;;;;;5.05;1.80;;;;;;;;;;5060851;28;20062;-84
2023/07/29 14:00:06;;;;;;;3.00;1.50;;;;;;;;;;5062977;28;20460;-84
2023/07/29 14:02:32;;;;;;;3.63;1.30;;;;;;;;;;5049247;28;21243;-82
2023/07/29 14:04:58;;;;;;;4.57;1.90;;;;;;;;;;5061166;28;20242;-82
2023/07/29 14:07:24;;;;;;;4.85;1.45;;;;;;;;;;5040981;28;20066;-82
2023/07/29 14:09:50;;;;;;;6.05;1.80;;;;;;;;;;5064555;28;20204;-86
2023/07/29 14:12:16;;;;;;;5.22;1.73;;;;;;;;;;5083359;28;20055;-83
2023/07/29 14:14:43;;;;;;;5.95;1.67;;;;;;;;;;5062670;28;20062;-80
2023/07/29 14:17:09;;;;;;;2.88;1.63;;;;;;;;;;5064227;28;20391;-83
2023/07/29 14:19:36;;;;;;;5.82;1.73;;;;;;;;;;5062672;28;20964;-81
2023/07/29 14:22:02;;;;;;;3.70;1.48;;;;;;;;;;5046059;28;20138;-83
2023/07/29 14:24:28;;;;;;;4.75;1.63;;;;;;;;;;5060458;28;20074;-82
2023/07/29 14:26:54;;;;;;;4.30;1.50;;;;;;;;;;5063971;28;20150;-81
2023/07/29 14:29:21;;;;;;;3.00;1.50;;;;;;;;;;5060750;28;20536;-81
2023/07/29 14:31:47;;;;;;;7.22;1.75;;;;;;;;;;5064683;28;20554;-82